Weather History for KSRB - March, 2014

Change the Weather History Date:

Sunday, March 23, 2014

  Actual Average (KCSV) Record (KCSV)
Temperature  
Mean Temperature 40 °F 49 °F  
Max Temperature 51 °F 60 °F 77 °F (2007)
Min Temperature 28 °F 39 °F 16 °F (1960)
Degree Days  
Heating Degree Days 26    
Month to date heating degree days  
Since 1 July heating degree days  
Cooling Degree Days 0    
Month to date cooling degree days  
Year to date cooling degree days  
Moisture  
Dew Point 30 °F    
Average Humidity 62    
Maximum Humidity 93    
Minimum Humidity 38    
Precipitation  
Precipitation 0.00 in 0.17 in 2.54 in (1993)
Month to date precipitation 3.58  
Year to date precipitation 12.80  
Sea Level Pressure  
Sea Level Pressure 30.16 in    
Wind  
Wind Speed 5 mph (North)    
Max Wind Speed 13 mph    
Max Gust Speed -    
Visibility 10 miles    
Events      
T = Trace of Precipitation, MM = Missing Value Source: NWS Daily Summary

Daily Weather History Graph

Daily Weather History Graph

Search for Another Location

Airport or City:

Trip Planner

Search our weather history database for the weather conditions in past years. The results will help you decide how hot, cold, wet, or windy it might be!

Date:

Astronomy

Mar. 23, 2014 Rise Set
Actual Time 6:41 AM CDT 6:56 PM CDT
Civil Twilight 6:15 AM CDT 7:22 PM CDT
Nautical Twilight 5:45 AM CDT 7:52 PM CDT
Astronomical Twilight 5:15 AM CDT 8:22 PM CDT
Moon 1:03 AM CDT (3/23) 11:30 AM CDT (3/23)
Length of Visible Light 13h 06m
Length of Day
12h 15m
Waning Gibbous, 54% of the Moon is Illuminated
Mar 23
Waning Gibbous
Mar 23
Last Quarter
Mar 30
New
Apr 7
First Quarter
Apr 15
Full

Hourly Weather History & Observations

Time (CDT) Temp. Windchill Dew Point Humidity Pressure Visibility Wind Dir Wind Speed Gust Speed Precip Events Conditions
12:15 AM 48.2 °F - 30.2 °F 50% 30.07 in 10.0 mi NNE 3.5 mph - N/A   Partly Cloudy
12:35 AM 46.4 °F 42.9 °F 30.2 °F 53% 30.06 in 10.0 mi NNE 6.9 mph - N/A   Partly Cloudy
12:55 AM 48.2 °F - 30.2 °F 50% 30.06 in 10.0 mi North 4.6 mph - N/A   Clear
1:15 AM 46.4 °F 44.3 °F 30.2 °F 53% 30.07 in 10.0 mi North 4.6 mph - N/A   Mostly Cloudy
1:35 AM 46.4 °F - 30.2 °F 53% 30.06 in 10.0 mi Calm Calm - N/A   Overcast
1:55 AM 46.4 °F 42.9 °F 30.2 °F 53% 30.05 in 10.0 mi NNE 6.9 mph - N/A   Mostly Cloudy
2:15 AM 46.4 °F 42.9 °F 30.2 °F 53% 30.04 in 10.0 mi NNE 6.9 mph - N/A   Overcast
2:35 AM 46.4 °F 42.4 °F 33.8 °F 62% 30.12 in 7.0 mi WNW 8.1 mph - N/A   Overcast
2:55 AM 42.8 °F - 37.4 °F 81% 30.13 in 7.0 mi Calm Calm - N/A   Overcast
3:15 AM 42.8 °F 40.1 °F 37.4 °F 81% 30.09 in 6.0 mi NNE 4.6 mph - N/A   Overcast
3:35 AM 41.0 °F 38.0 °F 37.4 °F 87% 30.09 in 8.0 mi NNE 4.6 mph - N/A   Overcast
3:55 AM 41.0 °F 37.1 °F 37.4 °F 87% 30.07 in 5.0 mi NNE 5.8 mph - N/A   Mostly Cloudy
4:15 AM 41.0 °F 38.0 °F 37.4 °F 87% 30.10 in 9.0 mi NNW 4.6 mph - N/A   Mostly Cloudy
4:35 AM 41.0 °F 38.0 °F 37.4 °F 87% 30.10 in 6.0 mi NE 4.6 mph - N/A   Overcast
4:55 AM 39.2 °F 35.9 °F 37.4 °F 93% 30.10 in 8.0 mi NNE 4.6 mph - N/A   Mostly Cloudy
5:15 AM 39.2 °F 37.0 °F 37.4 °F 93% 30.11 in 7.0 mi NNE 3.5 mph - N/A   Overcast
5:35 AM 39.2 °F 34.2 °F 37.4 °F 93% 30.10 in 7.0 mi NNE 6.9 mph - N/A   Overcast
5:55 AM 39.2 °F - 37.4 °F 93% 30.11 in 8.0 mi Calm Calm - N/A   Scattered Clouds
6:15 AM 39.2 °F - 37.4 °F 93% 30.11 in 10.0 mi Calm Calm - N/A   Partly Cloudy
6:35 AM 39.2 °F - 35.6 °F 87% 30.12 in 10.0 mi Calm Calm - N/A   Unknown
6:55 AM 39.2 °F 37.0 °F 35.6 °F 87% 30.15 in 10.0 mi North 3.5 mph - N/A   Mostly Cloudy
7:15 AM 39.2 °F 35.9 °F 35.6 °F 87% 30.14 in 10.0 mi NNE 4.6 mph - N/A   Mostly Cloudy
7:35 AM 37.4 °F - 35.6 °F 93% 30.15 in 10.0 mi Calm Calm - N/A   Mostly Cloudy
7:55 AM 37.4 °F 33.8 °F 35.6 °F 93% 30.15 in 9.0 mi NE 4.6 mph - N/A   Partly Cloudy
8:15 AM 37.4 °F 32.8 °F 33.8 °F 87% 30.16 in 10.0 mi NNE 5.8 mph - N/A   Unknown
8:35 AM 39.2 °F 33.6 °F 33.8 °F 81% 30.16 in 10.0 mi NNE 8.1 mph - N/A   Partly Cloudy
8:55 AM 39.2 °F 35.9 °F 33.8 °F 81% 30.17 in 10.0 mi NNE 4.6 mph - N/A   Scattered Clouds
9:15 AM 39.2 °F 33.6 °F 33.8 °F 81% 30.18 in 10.0 mi North 8.1 mph - N/A   Partly Cloudy
9:35 AM 41.0 °F 34.7 °F 33.8 °F 76% 30.18 in 10.0 mi North 10.4 mph - N/A   Partly Cloudy
9:55 AM 42.8 °F 38.6 °F 32.0 °F 66% 30.17 in 10.0 mi Variable 6.9 mph - N/A   Clear
10:15 AM 42.8 °F 38.6 °F 30.2 °F 61% 30.18 in 10.0 mi NNE 6.9 mph - N/A   Clear
10:35 AM 42.8 °F 37.0 °F 30.2 °F 61% 30.18 in 10.0 mi North 10.4 mph - N/A   Clear
10:55 AM 44.6 °F 40.7 °F 30.2 °F 57% 30.19 in 10.0 mi North 6.9 mph - N/A   Clear
11:15 AM 44.6 °F 40.7 °F 28.4 °F 53% 30.19 in 10.0 mi Variable 6.9 mph - N/A   Clear
11:35 AM 46.4 °F 42.9 °F 28.4 °F 50% 30.19 in 10.0 mi NNE 6.9 mph - N/A   Clear
11:55 AM 46.4 °F 41.5 °F 28.4 °F 50% 30.19 in 10.0 mi NNE 10.4 mph - N/A   Clear
12:15 PM 46.4 °F 41.1 °F 28.4 °F 50% 30.19 in 10.0 mi NW 11.5 mph - N/A   Clear
12:35 PM 46.4 °F 41.5 °F 26.6 °F 46% 30.18 in 10.0 mi NE 10.4 mph - N/A   Clear
12:55 PM 48.2 °F - 28.4 °F 46% 30.17 in 10.0 mi NNE 5.8 mph - N/A   Clear
1:15 PM 50.0 °F - 28.4 °F 43% 30.17 in 10.0 mi North 12.7 mph - N/A   Clear
1:35 PM 50.0 °F - 28.4 °F 43% 30.16 in 10.0 mi NNE 9.2 mph - N/A   Clear
1:55 PM 51.8 °F - 28.4 °F 41% 30.16 in 10.0 mi NNW 9.2 mph - N/A   Clear
2:15 PM 51.8 °F - 26.6 °F 38% 30.16 in 10.0 mi Variable 6.9 mph - N/A   Clear
2:35 PM 51.8 °F - 26.6 °F 38% 30.15 in 10.0 mi NNW 10.4 mph - N/A   Clear
2:55 PM 51.8 °F - 26.6 °F 38% 30.15 in 10.0 mi NNW 10.4 mph - N/A   Clear
3:15 PM 51.8 °F - 26.6 °F 38% 30.15 in 10.0 mi NW 12.7 mph - N/A   Clear
3:35 PM 51.8 °F - 26.6 °F 38% 30.15 in 10.0 mi North 10.4 mph - N/A   Clear
3:55 PM 51.8 °F - 26.6 °F 38% 30.16 in 10.0 mi North 9.2 mph - N/A   Clear
4:15 PM 51.8 °F - 26.6 °F 38% 30.16 in 10.0 mi North 8.1 mph - N/A   Clear
4:35 PM 50.0 °F - 26.6 °F 40% 30.17 in 10.0 mi North 10.4 mph - N/A   Clear
4:55 PM 48.2 °F - 26.6 °F 43% 30.17 in 10.0 mi North 12.7 mph - N/A   Clear
5:15 PM 48.2 °F - 26.6 °F 43% 30.18 in 10.0 mi North 9.2 mph - N/A   Clear
5:35 PM 46.4 °F 43.5 °F 26.6 °F 46% 30.18 in 10.0 mi Variable 5.8 mph - N/A   Partly Cloudy
5:55 PM 46.4 °F 41.1 °F 26.6 °F 46% 30.19 in 10.0 mi North 11.5 mph - N/A   Partly Cloudy
6:15 PM 44.6 °F 40.2 °F 26.6 °F 49% 30.19 in 10.0 mi NNE 8.1 mph - N/A   Clear
6:35 PM 44.6 °F 43.1 °F 24.8 °F 46% 30.20 in 10.0 mi NNE 3.5 mph - N/A   Clear
6:55 PM 42.8 °F 38.6 °F 24.8 °F 49% 30.20 in 10.0 mi Variable 6.9 mph - N/A   Clear
7:15 PM 42.8 °F - 24.8 °F 49% 30.20 in 10.0 mi Calm Calm - N/A   Clear
7:35 PM 41.0 °F - 24.8 °F 53% 30.20 in 10.0 mi Calm Calm - N/A   Clear
7:55 PM 39.2 °F 35.9 °F 24.8 °F 56% 30.20 in 10.0 mi NE 4.6 mph - N/A   Clear
8:15 PM 39.2 °F - 24.8 °F 56% 30.21 in 10.0 mi Calm Calm - N/A   Clear
8:35 PM 39.2 °F - 26.6 °F 61% 30.22 in 10.0 mi Calm Calm - N/A   Clear
8:55 PM 35.6 °F - 26.6 °F 70% 30.23 in 10.0 mi Calm Calm - N/A   Clear
9:15 PM 37.4 °F - 24.8 °F 60% 30.24 in 10.0 mi Calm Calm - N/A   Clear
9:35 PM 37.4 °F - 24.8 °F 60% 30.24 in 10.0 mi Calm Calm - N/A   Clear
9:55 PM 35.6 °F - 24.8 °F 65% 30.24 in 10.0 mi Calm Calm - N/A   Clear
10:15 PM 33.8 °F - 24.8 °F 70% 30.25 in 10.0 mi Calm Calm - N/A   Clear
10:35 PM 30.2 °F - 24.8 °F 80% 30.25 in 10.0 mi Calm Calm - N/A   Clear
10:55 PM 28.4 °F - 24.8 °F 86% 30.25 in 10.0 mi Calm Calm - N/A   Clear
11:15 PM 33.8 °F 30.8 °F 21.2 °F 60% 30.25 in 10.0 mi North 3.5 mph - N/A   Clear
11:35 PM 33.8 °F 30.8 °F 21.2 °F 60% 30.25 in 10.0 mi North 3.5 mph - N/A   Clear
11:55 PM 33.8 °F - 21.2 °F 60% 30.25 in 10.0 mi Calm Calm - N/A   Clear